Terminal Aerodrome Forecast
Issued by NWS

Home | Current Version | Previous Version | Text Only | Print | Product List | Glossary On
Versions: 1 2 3 4 5 6 7 8 9 10 11 12 13 14 15 16
576
FTUS43 KIWX 202321
TAFSBN
TAF
KSBN 202321Z 2100/2124 14015KT P6SM BKN200
     FM211000 19012KT 5SM BR VCSH OVC025
     FM211300 23008KT 3SM -SHRA BR BKN009 OVC015
     FM211700 26007KT 5SM BR BKN025=

USA.gov is the U.S. government's official web portal to all federal, state and local government web resources and services.